Time;durP1;ratioP1;P1;durP2;ratioP2;P2;SDS_P1;SDS_P2;PMS_P1;PMS_P2;Temp;Humidity;BMP_temperature;BMP_pressure;BME280_temperature;BME280_humidity;BME280_pressure;Samples;Min_cycle;Max_cycle;Signal;HPM_P1;HPM_P2
2021/10/19 13:50:50;;;;;;;3.35;0.90;;;;;;;22.19;31.27;101797.56;5045469;27;20722;-57
2021/10/19 13:53:19;;;;;;;1.15;0.52;;;;;;;22.33;30.13;101808.41;5042801;28;20053;-54
2021/10/19 13:55:47;;;;;;;2.78;0.80;;;;;;;22.48;30.59;101806.53;5021626;28;20675;-55
2021/10/19 13:58:15;;;;;;;3.67;1.20;;;;;;;22.61;30.65;101806.63;5037761;28;20064;-56
2021/10/19 14:00:44;;;;;;;1.45;0.50;;;;;;;22.62;28.99;101787.50;5040697;28;20044;-54
2021/10/19 14:03:12;;;;;;;2.25;0.82;;;;;;;22.73;28.85;101800.38;5035126;28;20068;-53
2021/10/19 14:05:41;;;;;;;1.55;0.60;;;;;;;22.80;28.20;101803.53;5038114;28;20096;-52
2021/10/19 14:08:13;;;;;;;3.80;1.00;;;;;;;22.86;28.14;101804.00;5038739;28;20052;-54
2021/10/19 14:10:41;;;;;;;2.08;0.57;;;;;;;22.93;28.09;101803.66;5034562;28;20171;-49
2021/10/19 14:13:09;;;;;;;2.22;1.13;;;;;;;22.97;29.01;101805.16;5031665;28;20045;-52
2021/10/19 14:15:37;;;;;;;4.20;1.13;;;;;;;23.00;27.93;101810.41;5040054;28;20061;-53
2021/10/19 14:18:06;;;;;;;2.50;0.50;;;;;;;23.01;27.99;101796.72;5039982;28;20533;-57
2021/10/19 14:20:34;;;;;;;1.50;0.60;;;;;;;23.05;28.15;101797.38;5038780;28;20064;-51
2021/10/19 14:23:02;;;;;;;0.80;0.50;;;;;;;23.06;27.85;101802.72;5041542;28;20053;-53
2021/10/19 14:25:31;;;;;;;1.35;0.50;;;;;;;23.07;27.55;101804.44;5046039;28;20658;-56
2021/10/19 14:27:59;;;;;;;0.90;0.50;;;;;;;23.08;28.45;101802.59;5041733;28;20440;-58
2021/10/19 14:30:27;;;;;;;1.40;0.73;;;;;;;23.13;27.80;101810.41;5033038;28;20071;-55
2021/10/19 14:32:56;;;;;;;0.93;0.50;;;;;;;23.12;27.91;101817.69;5036307;28;20441;-50
2021/10/19 14:35:24;;;;;;;1.77;0.70;;;;;;;23.14;27.48;101813.03;5029397;28;20513;-54
2021/10/19 14:37:53;;;;;;;2.42;0.60;;;;;;;23.16;27.68;101810.22;5038365;28;20045;-54
2021/10/19 14:40:21;;;;;;;1.00;0.63;;;;;;;23.16;27.70;101810.22;5038691;28;21793;-57
2021/10/19 14:42:50;;;;;;;1.80;0.50;;;;;;;23.18;27.91;101806.44;5034740;28;20068;-50
2021/10/19 14:45:18;;;;;;;1.95;0.85;;;;;;;23.19;27.74;101802.72;5042179;28;20069;-54
2021/10/19 14:47:46;;;;;;;2.30;0.70;;;;;;;23.20;27.73;101809.94;5040956;28;20057;-54
2021/10/19 14:50:14;;;;;;;2.47;0.63;;;;;;;23.18;27.93;101809.16;5039789;28;20570;-51
2021/10/19 14:52:43;;;;;;;8.48;1.23;;;;;;;23.15;27.59;101800.34;5038515;28;20052;-50
2021/10/19 14:55:11;;;;;;;3.95;1.00;;;;;;;23.12;28.23;101800.53;5050744;28;20053;-54
2021/10/19 14:57:41;;;;;;;0.93;0.50;;;;;;;23.10;28.19;101795.25;5042253;28;20063;-55
2021/10/19 15:00:12;;;;;;;2.00;0.77;;;;;;;23.08;27.87;101808.88;5033335;28;20044;-55
2021/10/19 15:02:40;;;;;;;3.28;1.17;;;;;;;23.08;27.67;101802.59;5015897;28;20052;-54
2021/10/19 15:05:08;;;;;;;3.47;1.30;;;;;;;23.09;28.02;101807.91;5027530;28;20057;-51
2021/10/19 15:07:36;;;;;;;3.55;0.98;;;;;;;23.13;28.39;101800.47;5029649;28;20068;-50
2021/10/19 15:10:04;;;;;;;2.05;1.02;;;;;;;23.10;28.17;101806.97;5030097;28;21029;-51
2021/10/19 15:12:32;;;;;;;4.00;1.10;;;;;;;23.10;28.46;101809.69;5026213;28;20061;-53
2021/10/19 15:15:00;;;;;;;1.50;0.70;;;;;;;23.12;28.31;101808.69;5027375;28;20763;-52
2021/10/19 15:17:31;;;;;;;1.48;0.60;;;;;;;23.15;28.33;101812.06;5029073;28;20048;-48
2021/10/19 15:19:59;;;;;;;1.08;0.70;;;;;;;23.20;28.09;101820.78;5027598;28;20045;-54
2021/10/19 15:22:27;;;;;;;1.48;0.93;;;;;;;23.16;27.75;101811.09;5005528;28;20057;-47
2021/10/19 15:24:56;;;;;;;4.15;1.08;;;;;;;23.15;28.10;101817.50;5034811;28;20072;-50
2021/10/19 15:27:23;;;;;;;1.63;0.60;;;;;;;23.15;27.76;101822.06;5034877;28;20144;-48
2021/10/19 15:29:51;;;;;;;2.17;0.60;;;;;;;23.14;27.75;101825.75;5035649;28;20135;-50
2021/10/19 15:32:19;;;;;;;1.83;0.65;;;;;;;23.12;27.91;101825.84;5033575;28;20055;-49
2021/10/19 15:34:49;;;;;;;2.20;0.60;;;;;;;23.10;27.66;101831.38;5034426;28;20053;-50
2021/10/19 15:37:16;;;;;;;1.48;0.70;;;;;;;23.08;27.87;101833.31;5028383;28;20058;-53
2021/10/19 15:39:44;;;;;;;3.83;0.52;;;;;;;23.09;27.78;101839.63;5034055;28;20072;-49
2021/10/19 15:42:12;;;;;;;1.23;0.60;;;;;;;23.09;27.51;101836.91;5033317;28;20052;-52
2021/10/19 15:49:13;;;;;;;;;;;;;;;23.12;28.02;101833.97;5136986;27;20401;-51
2021/10/19 15:51:41;;;;;;;4.15;1.05;;;;;;;23.04;27.76;101831.78;5134818;27;19962;-49
2021/10/19 15:54:09;;;;;;;6.65;0.90;;;;;;;23.01;27.13;101841.97;5135549;27;20051;-51
2021/10/19 15:56:37;;;;;;;3.40;0.70;;;;;;;22.99;27.48;101833.97;5128173;27;20051;-46
2021/10/19 15:59:05;;;;;;;1.20;0.70;;;;;;;22.98;27.57;101831.31;5136455;27;20068;-51
2021/10/19 16:01:33;;;;;;;1.73;0.73;;;;;;;22.95;27.41;101839.66;5135971;27;20050;-51
2021/10/19 16:04:01;;;;;;;1.80;0.57;;;;;;;22.85;27.29;101828.53;5129383;27;20503;-50
2021/10/19 16:06:32;;;;;;;1.60;0.60;;;;;;;22.91;27.10;101836.25;5136356;27;20525;-51
2021/10/19 16:09:00;;;;;;;1.13;0.52;;;;;;;22.91;27.20;101843.53;5137183;27;20038;-49
2021/10/19 16:11:27;;;;;;;2.13;0.80;;;;;;;22.87;27.06;101838.31;5128754;27;20058;-49
2021/10/19 16:13:56;;;;;;;3.70;1.08;;;;;;;22.86;26.85;101838.41;5134528;27;20051;-49
2021/10/19 16:16:23;;;;;;;1.75;0.68;;;;;;;22.85;26.87;101839.41;5132337;27;20043;-48
2021/10/19 16:18:52;;;;;;;2.40;0.85;;;;;;;22.79;26.95;101834.38;5132958;27;20047;-47
2021/10/19 16:21:20;;;;;;;1.70;0.70;;;;;;;22.79;26.88;101839.78;5133335;27;20066;-48
2021/10/19 16:23:49;;;;;;;1.95;0.60;;;;;;;22.77;26.75;101839.88;5133245;27;20397;-48
2021/10/19 16:26:22;;;;;;;2.67;0.90;;;;;;;22.73;26.69;101823.91;5136445;27;20077;-47
2021/10/19 16:28:50;;;;;;;2.08;0.70;;;;;;;22.72;26.63;101836.59;5134350;27;21159;-47
2021/10/19 16:31:18;;;;;;;2.55;0.80;;;;;;;22.69;26.80;101833.22;5145421;27;20057;-48
2021/10/19 16:33:46;;;;;;;1.63;0.63;;;;;;;22.67;26.52;101833.31;5139609;27;20490;-48
2021/10/19 16:36:14;;;;;;;2.22;0.80;;;;;;;22.67;26.32;101837.88;5133497;27;20511;-50
2021/10/19 16:38:43;;;;;;;3.38;0.80;;;;;;;22.66;26.65;101839.72;5136864;27;20054;-48
2021/10/19 16:41:13;;;;;;;1.58;0.88;;;;;;;22.64;26.40;101844.38;5136554;27;20096;-48
2021/10/19 16:43:42;;;;;;;2.58;0.95;;;;;;;22.63;26.60;101848.03;5136981;27;20054;-48
2021/10/19 16:46:10;;;;;;;2.35;0.70;;;;;;;22.61;26.38;101850.00;5135269;27;20047;-47
2021/10/19 16:48:39;;;;;;;2.40;1.00;;;;;;;22.59;26.32;101846.50;5138781;27;20495;-48
2021/10/19 16:51:07;;;;;;;1.77;0.70;;;;;;;22.48;26.32;101819.22;5135421;27;20066;-48
2021/10/19 16:53:35;;;;;;;2.35;0.85;;;;;;;22.56;26.56;101839.44;5137956;27;20290;-47
2021/10/19 16:56:03;;;;;;;2.08;1.05;;;;;;;22.54;26.19;101837.81;5137244;27;20053;-49
2021/10/19 16:58:32;;;;;;;3.47;1.23;;;;;;;22.53;26.30;101841.47;5139085;27;20056;-48
2021/10/19 17:01:00;;;;;;;1.67;0.70;;;;;;;22.52;26.03;101837.91;5124541;27;20357;-47
2021/10/19 17:03:28;;;;;;;2.10;0.88;;;;;;;22.52;26.21;101842.44;5126178;27;20055;-50
2021/10/19 17:05:56;;;;;;;1.88;0.75;;;;;;;22.50;26.07;101842.56;5123568;27;20055;-50
2021/10/19 17:08:24;;;;;;;1.70;0.70;;;;;;;22.36;26.19;101824.47;5118352;27;21940;-50
2021/10/19 17:10:52;;;;;;;2.40;1.25;;;;;;;22.45;26.13;101835.69;5120374;27;20050;-50
2021/10/19 17:13:21;;;;;;;1.70;0.95;;;;;;;22.42;26.10;101834.03;5126410;27;20451;-51
2021/10/19 17:15:51;;;;;;;1.48;0.70;;;;;;;22.42;26.07;101841.31;5122384;27;20054;-51
2021/10/19 17:18:19;;;;;;;2.70;1.33;;;;;;;22.29;25.93;101815.00;5120541;27;20047;-49
2021/10/19 17:20:48;;;;;;;3.03;1.00;;;;;;;22.39;26.00;101832.41;5130793;27;20062;-49
2021/10/19 17:23:16;;;;;;;1.85;0.85;;;;;;;22.38;25.84;101833.34;5121863;27;20458;-48
2021/10/19 17:25:43;;;;;;;1.92;0.82;;;;;;;22.22;25.93;101801.91;5124207;27;20046;-50
2021/10/19 17:28:11;;;;;;;2.40;1.15;;;;;;;22.36;25.71;101835.31;5126823;27;20079;-50
2021/10/19 17:30:39;;;;;;;3.25;1.00;;;;;;;22.35;25.88;101833.56;5128191;27;20151;-48
2021/10/19 17:33:10;;;;;;;2.83;1.20;;;;;;;22.34;25.91;101834.53;5130793;27;20084;-48
2021/10/19 17:35:37;;;;;;;3.08;1.02;;;;;;;22.34;25.89;101830.94;5125308;27;20058;-49
2021/10/19 17:38:05;;;;;;;1.80;1.15;;;;;;;22.33;25.66;101824.66;5124915;27;20051;-51
2021/10/19 17:40:33;;;;;;;1.52;0.80;;;;;;;22.31;25.55;101825.72;5123929;27;20055;-50
2021/10/19 17:43:01;;;;;;;2.83;1.10;;;;;;;22.31;25.52;101823.00;5124909;27;20058;-48
2021/10/19 17:45:29;;;;;;;3.05;1.20;;;;;;;22.28;25.75;101823.19;5126550;27;20047;-48
2021/10/19 17:47:57;;;;;;;3.08;1.55;;;;;;;22.30;25.83;101822.16;5125673;27;20047;-48
2021/10/19 17:50:26;;;;;;;1.73;0.75;;;;;;;22.28;25.69;101820.50;5126432;27;20051;-48
2021/10/19 17:52:56;;;;;;;2.78;1.15;;;;;;;22.28;25.54;101815.06;5127650;27;20043;-47
2021/10/19 17:55:23;;;;;;;2.97;1.00;;;;;;;22.27;25.48;101816.06;5123678;27;20043;-52
2021/10/19 17:57:51;;;;;;;3.60;0.90;;;;;;;22.25;25.61;101818.84;5127920;27;20051;-47
2021/10/19 18:00:19;;;;;;;2.20;1.08;;;;;;;22.25;25.63;101818.84;5119506;27;20419;-47
2021/10/19 18:02:47;;;;;;;2.60;1.00;;;;;;;22.22;25.56;101816.34;5123151;27;20490;-48
2021/10/19 18:05:15;;;;;;;1.73;1.00;;;;;;;22.22;25.48;101824.47;5125287;27;20054;-50
2021/10/19 18:07:48;;;;;;;3.10;1.13;;;;;;;22.23;25.60;101820.78;5119831;27;20047;-50
2021/10/19 18:10:16;;;;;;;3.22;1.60;;;;;;;22.21;25.53;101819.16;5120441;27;20055;-50
2021/10/19 18:12:44;;;;;;;2.20;1.13;;;;;;;22.20;25.40;101818.28;5122423;27;20069;-46
2021/10/19 18:15:11;;;;;;;2.17;1.05;;;;;;;22.18;25.22;101811.19;5123456;27;20066;-48
2021/10/19 18:17:39;;;;;;;4.25;1.15;;;;;;;22.14;25.47;101802.38;5123489;27;20047;-49
2021/10/19 18:20:08;;;;;;;1.90;1.20;;;;;;;22.18;25.37;101814.78;5123480;27;20059;-52
2021/10/19 18:22:46;;;;;;;2.80;1.20;;;;;;;22.17;25.45;101801.34;5126782;27;20051;-51
2021/10/19 18:25:15;;;;;;;2.60;1.35;;;;;;;22.16;25.25;101808.59;5122829;27;20055;-49
2021/10/19 18:27:45;;;;;;;3.53;1.38;;;;;;;22.14;25.19;101811.41;5121335;27;20047;-50
2021/10/19 18:30:13;;;;;;;1.73;0.93;;;;;;;22.15;25.15;101812.28;5120513;27;20052;-47
2021/10/19 18:32:42;;;;;;;1.55;0.93;;;;;;;22.14;25.00;101810.50;5127810;27;20058;-47
2021/10/19 18:35:10;;;;;;;2.45;1.33;;;;;;;22.13;25.09;101814.19;5120471;27;20071;-47
2021/10/19 18:37:38;;;;;;;3.53;1.48;;;;;;;22.13;25.09;101816.91;5130058;27;20047;-46
2021/10/19 18:40:07;;;;;;;2.92;1.30;;;;;;;22.10;25.10;101808.94;5122133;27;20048;-49
2021/10/19 18:42:38;;;;;;;2.20;0.90;;;;;;;22.12;25.07;101812.44;5129121;27;20057;-46
2021/10/19 18:45:07;;;;;;;2.92;1.20;;;;;;;22.08;25.08;101808.19;5129659;27;20530;-49
2021/10/19 18:47:37;;;;;;;2.42;1.20;;;;;;;22.06;25.02;101807.41;5126843;27;20471;-51
2021/10/19 18:50:06;;;;;;;2.15;1.05;;;;;;;22.10;25.00;101825.22;5128236;27;20047;-48
2021/10/19 18:52:34;;;;;;;3.20;1.48;;;;;;;22.09;25.11;101821.63;5126836;27;20055;-48
2021/10/19 18:55:01;;;;;;;1.58;1.00;;;;;;;22.08;25.06;101825.31;5125544;27;20062;-51
2021/10/19 18:57:30;;;;;;;2.33;1.17;;;;;;;22.07;24.83;101820.84;5123717;27;20051;-51
2021/10/19 18:59:59;;;;;;;3.22;1.30;;;;;;;22.07;25.02;101822.69;5116362;27;20055;-47
2021/10/19 19:02:28;;;;;;;2.17;0.93;;;;;;;22.08;24.73;101821.75;5128225;27;20150;-49
2021/10/19 19:04:58;;;;;;;2.08;1.05;;;;;;;22.05;24.93;101822.81;5133495;27;20051;-47
2021/10/19 19:07:26;;;;;;;2.22;0.98;;;;;;;22.06;24.78;101829.94;5129293;27;20050;-51
2021/10/19 19:09:54;;;;;;;2.60;0.98;;;;;;;22.04;24.94;101821.06;5118654;27;20051;-48
2021/10/19 19:12:22;;;;;;;5.03;1.38;;;;;;;22.06;24.88;101831.81;5127449;27;20043;-47
2021/10/19 19:14:55;;;;;;;2.05;1.08;;;;;;;22.04;24.90;101821.06;5129535;27;20051;-48
2021/10/19 19:17:24;;;;;;;2.30;1.10;;;;;;;22.05;24.93;101816.50;5125370;27;20035;-48
2021/10/19 19:19:52;;;;;;;1.90;1.10;;;;;;;22.05;24.81;101817.38;5125031;27;20051;-46
2021/10/19 19:22:20;;;;;;;3.83;1.33;;;;;;;22.05;24.85;101814.66;5126025;27;20047;-46
2021/10/19 19:24:48;;;;;;;2.38;1.20;;;;;;;22.02;24.87;101809.44;5124691;27;20059;-46
2021/10/19 19:27:17;;;;;;;1.73;0.93;;;;;;;22.03;24.77;101811.19;5129509;27;20474;-45
2021/10/19 19:29:45;;;;;;;3.08;1.50;;;;;;;22.03;24.69;101810.31;5130854;27;20050;-46
2021/10/19 19:32:13;;;;;;;2.30;1.25;;;;;;;22.02;24.61;101808.56;5120061;27;20059;-46
2021/10/19 19:34:42;;;;;;;2.72;1.10;;;;;;;21.98;24.76;101807.91;5116461;27;20054;-46
2021/10/19 19:37:10;;;;;;;1.75;1.00;;;;;;;22.01;24.68;101818.53;5128391;27;20051;-48
2021/10/19 19:39:39;;;;;;;2.00;1.10;;;;;;;21.98;24.68;101810.59;5128284;27;20047;-46
2021/10/19 19:42:06;;;;;;;1.25;0.85;;;;;;;22.01;24.70;101815.84;5128125;27;20062;-51
2021/10/19 19:44:34;;;;;;;2.42;1.38;;;;;;;22.01;24.61;101812.22;5123535;28;20062;-49
2021/10/19 19:47:02;;;;;;;2.20;1.48;;;;;;;22.00;24.61;101815.91;5118316;28;20054;-46
2021/10/19 19:49:30;;;;;;;3.20;1.63;;;;;;;21.99;24.56;101816.91;5120003;28;20529;-47
2021/10/19 19:51:59;;;;;;;2.13;1.15;;;;;;;21.99;24.51;101822.31;5113433;28;20056;-48
2021/10/19 19:54:27;;;;;;;3.03;1.38;;;;;;;21.99;24.47;101814.19;5121226;28;20080;-49
2021/10/19 19:56:55;;;;;;;2.20;1.13;;;;;;;21.98;24.57;101809.75;5131665;28;20039;-49
2021/10/19 19:59:23;;;;;;;1.95;1.00;;;;;;;21.97;24.54;101805.28;5130285;27;20051;-46
2021/10/19 20:01:50;;;;;;;1.60;0.85;;;;;;;21.93;24.37;101793.75;5130178;27;20066;-45
2021/10/19 20:04:20;;;;;;;2.15;0.77;;;;;;;21.95;24.38;101789.13;5128589;28;20055;-50
2021/10/19 20:06:49;;;;;;;2.85;1.10;;;;;;;21.97;24.29;101786.31;5129082;28;20084;-46
2021/10/19 20:09:18;;;;;;;2.45;1.13;;;;;;;21.96;24.51;101788.16;5121943;28;20066;-47
2021/10/19 20:11:45;;;;;;;2.13;1.20;;;;;;;21.95;24.48;101799.97;5130019;28;20413;-49
2021/10/19 20:14:15;;;;;;;2.45;1.77;;;;;;;21.95;24.44;101783.72;5127449;28;20058;-49
2021/10/19 20:16:43;;;;;;;1.85;0.90;;;;;;;21.93;24.42;101781.06;5127206;28;20069;-49
2021/10/19 20:19:12;;;;;;;2.50;0.90;;;;;;;21.92;24.52;101778.47;5125934;28;20055;-49
2021/10/19 20:21:40;;;;;;;1.85;1.05;;;;;;;21.94;24.49;101773.84;5124002;27;20058;-48
2021/10/19 20:24:09;;;;;;;1.85;1.00;;;;;;;21.94;24.33;101784.69;5126207;28;20066;-47
2021/10/19 20:26:38;;;;;;;1.95;1.10;;;;;;;21.93;24.40;101788.34;5116821;28;20039;-47
2021/10/19 20:29:07;;;;;;;2.25;0.93;;;;;;;21.94;24.32;101792.81;5121744;28;20058;-47
2021/10/19 20:31:37;;;;;;;2.25;1.02;;;;;;;21.92;24.39;101792.03;5116500;28;20036;-46
2021/10/19 20:34:05;;;;;;;2.42;1.30;;;;;;;21.92;24.31;101790.19;5125623;27;20060;-47
2021/10/19 20:36:33;;;;;;;1.45;0.90;;;;;;;21.91;24.45;101780.31;5112946;27;20575;-46
2021/10/19 20:39:00;;;;;;;2.92;1.08;;;;;;;21.92;24.60;101781.19;5132603;27;20055;-49
2021/10/19 20:41:30;;;;;;;1.85;1.00;;;;;;;21.92;24.46;101783.91;5126277;27;20058;-47
2021/10/19 20:44:00;;;;;;;3.13;1.45;;;;;;;21.91;24.30;101793.00;5111896;27;20482;-47
2021/10/19 20:46:28;;;;;;;3.28;1.08;;;;;;;21.91;24.32;101793.88;5116814;27;20051;-47
2021/10/19 20:48:56;;;;;;;3.45;1.30;;;;;;;21.90;24.32;101791.22;5132686;27;20062;-46
2021/10/19 20:51:23;;;;;;;3.65;2.13;;;;;;;21.89;24.33;101778.66;5114107;28;20488;-49
2021/10/19 20:53:52;;;;;;;3.30;1.45;;;;;;;21.88;24.27;101787.75;5116809;27;20051;-47
2021/10/19 20:56:21;;;;;;;2.53;1.30;;;;;;;21.86;24.15;101779.72;5122164;27;20061;-51
2021/10/19 20:58:49;;;;;;;2.33;1.20;;;;;;;21.89;24.30;101775.94;5133526;27;20063;-49
2021/10/19 21:01:18;;;;;;;2.35;1.08;;;;;;;21.88;24.10;101774.22;5129778;27;20473;-54
2021/10/19 21:03:45;;;;;;;2.60;1.10;;;;;;;21.89;24.21;101767.84;5127260;27;20058;-51
2021/10/19 21:06:16;;;;;;;3.92;1.33;;;;;;;21.88;24.14;101768.81;5133221;27;20738;-47
2021/10/19 21:08:44;;;;;;;3.05;1.10;;;;;;;21.89;24.13;101757.84;5119507;27;20058;-50
2021/10/19 21:11:13;;;;;;;2.75;0.93;;;;;;;21.86;24.22;101752.63;5127309;27;20514;-46
2021/10/19 21:13:41;;;;;;;1.92;0.98;;;;;;;21.88;24.28;101763.38;5137616;27;20054;-51
2021/10/19 21:16:09;;;;;;;2.72;1.67;;;;;;;21.87;24.06;101758.94;5121623;27;20060;-47
2021/10/19 21:18:40;;;;;;;2.45;1.30;;;;;;;21.86;24.07;101752.63;5120993;27;20059;-46
2021/10/19 21:21:08;;;;;;;2.47;1.70;;;;;;;21.87;24.28;101761.66;5126341;27;20053;-47
2021/10/19 21:23:37;;;;;;;3.05;1.45;;;;;;;21.84;24.22;101757.28;5126258;27;20066;-49
2021/10/19 21:26:05;;;;;;;3.20;1.38;;;;;;;21.81;24.04;101753.91;5117998;27;20070;-49
2021/10/19 21:28:33;;;;;;;2.15;1.17;;;;;;;21.85;24.20;101767.16;5117643;27;20062;-48
2021/10/19 21:31:02;;;;;;;2.72;1.40;;;;;;;21.82;24.05;101763.75;5131646;27;20058;-47
2021/10/19 21:33:31;;;;;;;3.20;1.40;;;;;;;21.73;24.11;101751.69;5132859;27;20423;-49
2021/10/19 21:36:00;;;;;;;2.55;1.13;;;;;;;21.85;24.05;101771.72;5121699;27;20062;-50
2021/10/19 21:38:28;;;;;;;3.30;1.17;;;;;;;21.84;23.98;101759.13;5121028;27;20066;-46
2021/10/19 21:40:57;;;;;;;2.47;1.40;;;;;;;21.84;24.18;101759.13;5131489;27;20058;-51
2021/10/19 21:43:26;;;;;;;3.63;2.00;;;;;;;21.84;23.99;101757.28;5119381;27;20066;-49
2021/10/19 21:45:54;;;;;;;3.75;1.50;;;;;;;21.84;24.08;101754.59;5116480;27;20063;-52
2021/10/19 21:48:21;;;;;;;2.72;1.67;;;;;;;21.84;24.00;101760.00;5126907;27;20475;-48
2021/10/19 21:50:49;;;;;;;3.72;1.60;;;;;;;21.85;23.92;101767.16;5124244;27;20056;-49
2021/10/19 21:53:19;;;;;;;3.15;1.73;;;;;;;21.84;24.09;101769.97;5120363;27;20056;-48
2021/10/19 21:55:47;;;;;;;4.25;1.65;;;;;;;21.84;23.87;101778.09;5125659;27;20457;-48
2021/10/19 21:58:18;;;;;;;3.30;2.05;;;;;;;21.84;24.06;101757.28;5114172;27;20141;-50
2021/10/19 22:00:48;;;;;;;3.17;1.98;;;;;;;21.81;23.90;101751.19;5118186;27;20044;-51
2021/10/19 22:03:16;;;;;;;3.03;1.77;;;;;;;21.83;23.82;101765.50;5114649;27;20054;-51
2021/10/19 22:05:44;;;;;;;2.65;1.60;;;;;;;21.83;23.93;101762.78;5116816;27;20055;-48
2021/10/19 22:08:13;;;;;;;4.05;2.22;;;;;;;21.81;24.00;101760.19;5122262;27;20074;-48
2021/10/19 22:10:43;;;;;;;2.83;1.77;;;;;;;21.80;24.01;101746.75;5128381;27;20054;-49
2021/10/19 22:13:11;;;;;;;3.17;2.13;;;;;;;21.80;23.96;101749.47;5122321;27;20063;-49
2021/10/19 22:15:38;;;;;;;3.53;2.05;;;;;;;21.81;23.83;101746.66;5128263;27;20054;-51
2021/10/19 22:18:06;;;;;;;4.20;2.15;;;;;;;21.79;23.89;101745.84;5132340;27;20051;-51
2021/10/19 22:20:34;;;;;;;5.35;2.03;;;;;;;21.82;23.89;101744.81;5130507;27;20047;-51
2021/10/19 22:23:03;;;;;;;3.22;2.30;;;;;;;21.79;23.75;101743.16;5114788;27;20067;-47
2021/10/19 22:28:20;;;;;;;4.78;3.28;;;;;;;21.81;23.73;101734.94;5123883;27;20505;-49
2021/10/19 22:30:48;;;;;;;3.05;1.70;;;;;;;21.82;23.78;101737.53;5133866;27;20051;-50
2021/10/19 22:33:16;;;;;;;3.40;1.98;;;;;;;21.82;23.74;101733.97;5132095;27;20054;-52
2021/10/19 22:35:45;;;;;;;3.67;2.13;;;;;;;21.80;23.86;101734.09;5131930;27;20535;-53
2021/10/19 22:38:13;;;;;;;3.30;2.10;;;;;;;21.80;23.69;101728.66;5130265;27;20078;-49
2021/10/19 22:40:40;;;;;;;3.05;2.05;;;;;;;21.80;23.75;101725.97;5129989;27;20047;-48
2021/10/19 22:43:08;;;;;;;3.53;1.92;;;;;;;21.77;23.84;101718.03;5133551;27;20059;-50
2021/10/19 22:45:38;;;;;;;3.10;2.28;;;;;;;21.80;23.59;101720.53;5121480;27;20051;-49
2021/10/19 22:48:06;;;;;;;7.93;2.47;;;;;;;21.76;23.75;101713.59;5126533;27;20542;-49
2021/10/19 22:50:34;;;;;;;3.30;2.10;;;;;;;21.79;23.76;101716.06;5122920;27;20047;-48
2021/10/19 22:53:02;;;;;;;2.70;2.00;;;;;;;21.79;23.63;101715.19;5115392;27;20055;-51
2021/10/19 22:55:30;;;;;;;4.18;2.53;;;;;;;21.77;23.35;101709.91;5122038;27;20054;-49
2021/10/19 22:57:59;;;;;;;3.15;1.98;;;;;;;21.78;23.66;101711.63;5120632;27;20055;-46
2021/10/19 23:00:26;;;;;;;3.55;2.30;;;;;;;21.79;23.74;101704.38;5131952;27;20047;-49
2021/10/19 23:02:56;;;;;;;3.80;2.53;;;;;;;21.78;23.73;101716.19;5119574;27;20062;-47
2021/10/19 23:05:24;;;;;;;3.88;2.58;;;;;;;21.78;23.50;101710.75;5120715;27;20059;-46
2021/10/19 23:07:51;;;;;;;3.00;1.83;;;;;;;21.77;23.68;101709.91;5127207;27;20058;-48
2021/10/19 23:10:19;;;;;;;6.00;2.35;;;;;;;21.77;23.53;101706.31;5132672;27;20539;-48
2021/10/19 23:12:47;;;;;;;4.18;2.75;;;;;;;21.77;23.56;101696.34;5129149;27;20058;-46
2021/10/19 23:15:15;;;;;;;3.00;2.10;;;;;;;21.77;23.62;101699.06;5119717;27;20062;-47
2021/10/19 23:17:43;;;;;;;3.22;2.20;;;;;;;21.77;23.67;101684.66;5130641;27;20055;-48
2021/10/19 23:20:12;;;;;;;3.38;2.40;;;;;;;21.77;23.44;101685.53;5125254;27;20500;-50
2021/10/19 23:22:41;;;;;;;3.13;2.13;;;;;;;21.65;23.45;101665.50;5115649;27;20055;-47
2021/10/19 23:25:10;;;;;;;3.60;2.08;;;;;;;21.77;23.54;101681.94;5123360;27;20050;-47
2021/10/19 23:27:38;;;;;;;4.00;2.20;;;;;;;21.77;23.51;101674.69;5114340;27;20055;-46
2021/10/19 23:30:07;;;;;;;3.22;2.10;;;;;;;21.78;23.46;101675.56;5111871;28;20435;-48
2021/10/19 23:32:35;;;;;;;4.72;2.28;;;;;;;21.68;23.76;101657.19;5122961;27;20047;-50
2021/10/19 23:35:03;;;;;;;3.40;2.05;;;;;;;21.78;23.50;101670.13;5113030;28;20073;-47
2021/10/19 23:37:32;;;;;;;4.28;2.05;;;;;;;21.76;23.43;101667.53;5111892;28;20055;-48
2021/10/19 23:40:00;;;;;;;3.53;2.33;;;;;;;21.77;23.42;101673.81;5121653;27;20647;-47
2021/10/19 23:42:28;;;;;;;5.25;2.40;;;;;;;21.75;23.34;101665.78;5116456;28;20055;-49
2021/10/19 23:44:56;;;;;;;3.88;2.55;;;;;;;21.75;23.39;101664.91;5130538;27;20047;-49
2021/10/19 23:47:24;;;;;;;3.92;2.10;;;;;;;21.74;23.54;101669.47;5121686;28;20454;-48
2021/10/19 23:49:51;;;;;;;3.45;2.15;;;;;;;21.74;23.55;101677.59;5115220;28;20052;-48
2021/10/19 23:52:19;;;;;;;3.13;2.15;;;;;;;21.75;23.43;101673.03;5111917;28;20051;-48
2021/10/19 23:54:48;;;;;;;3.22;1.92;;;;;;;21.67;23.29;101650.03;5118485;28;20484;-50
2021/10/19 23:57:16;;;;;;;2.97;2.30;;;;;;;21.74;23.36;101661.34;5130912;28;20055;-47
2021/10/19 23:59:44;;;;;;;3.08;2.00;;;;;;;21.74;23.29;101665.88;5122323;28;20047;-50
